createdAt,value
2023-04-26T00:03:04.566Z,9.50
2023-04-26T00:08:09.401Z,8.80
2023-04-26T00:13:12.512Z,13.80
2023-04-26T00:18:18.291Z,13.40
2023-04-26T00:23:21.241Z,16.10
2023-04-26T00:28:24.253Z,14.60
2023-04-26T00:33:29.212Z,9.30
2023-04-26T00:43:37.104Z,12.50
2023-04-26T00:48:40.543Z,10.40
2023-04-26T00:53:43.685Z,11.80
2023-04-26T00:58:47.477Z,12.40
2023-04-26T01:03:50.386Z,12.00
2023-04-26T01:08:57.183Z,10.60
2023-04-26T01:14:00.078Z,13.10
2023-04-26T01:19:13.494Z,15.20
2023-04-26T01:24:16.689Z,14.60
2023-04-26T01:29:21.441Z,11.20
2023-04-26T01:34:24.380Z,11.10
2023-04-26T01:39:28.111Z,12.70
2023-04-26T01:44:31.424Z,12.90
2023-04-26T01:49:34.590Z,35.10
2023-04-26T01:54:37.446Z,38.00
2023-04-26T01:59:40.368Z,31.40
2023-04-26T02:04:43.258Z,27.00
2023-04-26T02:09:46.680Z,24.30
2023-04-26T02:14:49.506Z,27.60
2023-04-26T02:19:52.477Z,24.90
2023-04-26T02:24:55.451Z,35.70
2023-04-26T02:29:58.287Z,22.20
2023-04-26T02:35:01.633Z,15.80
2023-04-26T02:40:05.982Z,14.70
2023-04-26T02:45:08.973Z,15.40
2023-04-26T02:50:11.915Z,13.90
2023-04-26T02:55:17.386Z,14.20
2023-04-26T03:00:20.661Z,16.60
2023-04-26T03:05:23.739Z,16.90
2023-04-26T03:10:26.680Z,14.70
2023-04-26T03:15:29.470Z,13.30
2023-04-26T03:20:32.323Z,15.10
2023-04-26T03:25:35.103Z,13.10
2023-04-26T03:30:38.918Z,15.00
2023-04-26T03:35:41.837Z,17.70
2023-04-26T03:40:44.660Z,13.10
2023-04-26T03:45:50.168Z,14.70
2023-04-26T03:50:53.694Z,13.20
2023-04-26T03:55:56.643Z,9.80
2023-04-26T04:00:59.495Z,9.10
2023-04-26T04:06:02.785Z,9.90
2023-04-26T04:11:06.319Z,14.00
2023-04-26T04:16:10.353Z,18.20
2023-04-26T04:21:13.158Z,15.70
2023-04-26T04:26:16.299Z,15.40
2023-04-26T04:31:19.235Z,10.60
2023-04-26T04:36:22.116Z,12.50
2023-04-26T04:41:26.575Z,9.40
2023-04-26T04:46:29.463Z,10.80
2023-04-26T04:51:32.246Z,8.90
2023-04-26T04:56:35.000Z,12.80
2023-04-26T05:01:38.834Z,10.70
2023-04-26T05:06:42.618Z,8.30
2023-04-26T05:11:46.439Z,10.10
2023-04-26T05:16:49.531Z,7.90
2023-04-26T05:21:53.012Z,12.30
2023-04-26T05:27:00.616Z,6.90
2023-04-26T05:32:06.113Z,9.60
2023-04-26T05:37:09.576Z,8.90
2023-04-26T05:42:13.271Z,11.90
2023-04-26T05:47:17.134Z,8.10
2023-04-26T05:52:20.328Z,8.70
2023-04-26T05:57:30.351Z,9.10
2023-04-26T06:02:33.811Z,7.50
2023-04-26T06:07:38.230Z,6.50
2023-04-26T06:12:41.426Z,9.00
2023-04-26T06:17:44.997Z,7.70
2023-04-26T06:22:48.118Z,6.80
2023-04-26T06:27:50.948Z,5.90
2023-04-26T06:32:55.185Z,7.20
2023-04-26T06:37:58.366Z,7.30
2023-04-26T06:43:01.942Z,4.90
2023-04-26T06:48:05.310Z,7.10
2023-04-26T06:53:08.406Z,7.90
2023-04-26T06:58:12.509Z,10.20
2023-04-26T07:03:15.601Z,5.70
2023-04-26T07:08:19.317Z,7.60
2023-04-26T07:13:22.129Z,4.80
2023-04-26T07:18:24.978Z,5.80
2023-04-26T07:23:29.655Z,6.20
2023-04-26T07:28:32.842Z,9.60
2023-04-26T07:33:35.786Z,5.90
2023-04-26T07:38:48.921Z,8.30
2023-04-26T07:43:52.227Z,9.40
2023-04-26T07:48:55.256Z,6.00
2023-04-26T07:53:58.395Z,8.30
2023-04-26T07:59:02.564Z,8.60
2023-04-26T08:04:09.706Z,9.60
2023-04-26T08:09:13.302Z,5.00
2023-04-26T08:14:17.944Z,7.70
2023-04-26T08:19:24.173Z,7.80
2023-04-26T08:24:30.152Z,9.00
2023-04-26T08:29:33.386Z,5.00
2023-04-26T08:34:43.509Z,6.40
2023-04-26T08:39:53.528Z,9.60
2023-04-26T08:45:01.802Z,8.30
2023-04-26T08:50:06.387Z,8.70
2023-04-26T08:55:13.002Z,7.60
2023-04-26T09:05:27.329Z,5.50
2023-04-26T09:10:32.236Z,8.60
2023-04-26T09:15:35.777Z,13.10
2023-04-26T09:20:38.914Z,8.30
2023-04-26T09:25:42.832Z,5.40
2023-04-26T09:30:45.683Z,4.50
2023-04-26T09:35:49.052Z,7.10
2023-04-26T09:40:52.570Z,6.30
2023-04-26T09:45:58.901Z,6.00
2023-04-26T09:51:04.754Z,10.80
2023-04-26T09:56:13.245Z,16.30
2023-04-26T10:01:19.205Z,15.90
2023-04-26T10:06:22.547Z,12.10
2023-04-26T10:11:27.790Z,8.50
2023-04-26T10:16:31.356Z,5.10
2023-04-26T10:21:39.260Z,5.70
2023-04-26T10:26:54.514Z,5.40
2023-04-26T10:32:10.808Z,8.90
2023-04-26T10:37:16.961Z,6.30
2023-04-26T10:42:25.140Z,6.30
2023-04-26T10:47:31.926Z,6.10
2023-04-26T10:52:36.532Z,6.10
2023-04-26T10:57:52.969Z,4.50
2023-04-26T11:08:16.159Z,6.00
2023-04-26T11:13:20.652Z,6.30
2023-04-26T11:18:23.560Z,7.00
2023-04-26T11:23:29.067Z,7.80
2023-04-26T11:28:34.613Z,5.40
2023-04-26T11:33:37.982Z,5.10
2023-04-26T11:38:42.117Z,6.20
2023-04-26T11:43:48.028Z,4.10
2023-04-26T11:48:52.304Z,4.10
2023-04-26T11:53:55.515Z,4.50
2023-04-26T11:59:00.250Z,5.50
2023-04-26T12:04:10.839Z,4.20
2023-04-26T12:14:16.972Z,3.10
2023-04-26T12:19:24.007Z,6.70
2023-04-26T12:24:34.600Z,5.70
2023-04-26T12:29:37.558Z,4.80
2023-04-26T12:34:40.434Z,6.50
2023-04-26T12:39:44.585Z,6.60
2023-04-26T12:44:47.526Z,3.50
2023-04-26T12:49:50.371Z,5.80
2023-04-26T12:54:53.276Z,6.50
2023-04-26T12:59:56.669Z,6.40
2023-04-26T13:05:05.123Z,6.60
2023-04-26T13:10:12.878Z,6.10
2023-04-26T13:15:17.777Z,7.40
2023-04-26T13:20:23.703Z,3.90
2023-04-26T13:25:31.797Z,7.50
2023-04-26T13:30:36.316Z,6.50
2023-04-26T13:35:39.156Z,5.60
2023-04-26T13:40:43.031Z,8.20
2023-04-26T13:51:07.246Z,5.10
2023-04-26T13:56:11.516Z,6.80
2023-04-26T14:01:16.102Z,5.80
2023-04-26T14:06:19.075Z,4.70
2023-04-26T14:11:23.241Z,6.20
2023-04-26T14:16:26.854Z,4.90
2023-04-26T14:21:31.887Z,5.30
2023-04-26T14:26:34.731Z,6.20
2023-04-26T14:31:37.786Z,3.50
2023-04-26T14:36:40.755Z,7.30
2023-04-26T14:41:43.706Z,6.10
2023-04-26T14:46:46.885Z,6.70
2023-04-26T14:51:52.544Z,6.10
2023-04-26T14:56:56.407Z,5.60
2023-04-26T15:01:59.332Z,7.20
2023-04-26T15:07:02.851Z,5.00
2023-04-26T15:12:07.195Z,5.20
2023-04-26T15:17:10.121Z,7.10
2023-04-26T15:22:12.988Z,6.40
2023-04-26T15:27:15.950Z,5.30
2023-04-26T15:32:18.759Z,6.40
2023-04-26T15:37:22.318Z,4.70
2023-04-26T15:42:25.190Z,9.20
2023-04-26T15:47:29.254Z,3.40
2023-04-26T15:52:38.940Z,4.70
2023-04-26T15:57:42.755Z,4.40
2023-04-26T16:02:45.726Z,5.80
2023-04-26T16:07:48.748Z,4.20
2023-04-26T16:12:51.952Z,3.90
2023-04-26T16:17:54.813Z,5.00
2023-04-26T16:23:00.073Z,5.60
2023-04-26T16:28:03.183Z,4.50
2023-04-26T16:33:12.750Z,5.70
2023-04-26T16:38:16.362Z,4.90
2023-04-26T16:43:20.382Z,4.00
2023-04-26T16:48:31.490Z,4.70
2023-04-26T16:53:34.572Z,4.70
2023-04-26T16:58:37.585Z,2.80
2023-04-26T17:03:43.087Z,2.90
2023-04-26T17:08:49.808Z,7.40
2023-04-26T17:19:28.622Z,4.20
2023-04-26T17:24:31.448Z,5.40
2023-04-26T17:29:37.812Z,6.30
2023-04-26T17:34:40.534Z,3.60
2023-04-26T17:39:43.659Z,6.50
2023-04-26T17:44:47.027Z,3.70
2023-04-26T17:49:50.591Z,4.30
2023-04-26T17:54:55.049Z,8.70
2023-04-26T17:59:58.117Z,4.00
2023-04-26T18:05:01.764Z,8.10
2023-04-26T18:10:06.645Z,5.60
2023-04-26T18:15:10.455Z,9.00
2023-04-26T18:20:13.424Z,5.00
2023-04-26T18:25:16.845Z,4.30
2023-04-26T18:30:19.736Z,4.90
2023-04-26T18:35:22.453Z,5.50
2023-04-26T18:40:26.292Z,5.80
2023-04-26T18:45:29.480Z,4.40
2023-04-26T18:50:32.286Z,5.70
2023-04-26T18:55:35.074Z,7.90
2023-04-26T19:00:38.732Z,5.00
2023-04-26T19:05:44.038Z,7.30
2023-04-26T19:10:47.044Z,12.30
2023-04-26T19:15:49.911Z,6.00
2023-04-26T19:20:52.804Z,6.20
2023-04-26T19:26:09.369Z,6.10
2023-04-26T19:31:12.277Z,5.50
2023-04-26T19:36:15.069Z,4.30
2023-04-26T19:41:18.002Z,4.80
2023-04-26T19:46:20.825Z,7.80
2023-04-26T19:51:24.185Z,4.50
2023-04-26T19:56:26.963Z,3.10
2023-04-26T20:01:30.444Z,8.40
2023-04-26T20:06:33.390Z,7.60
2023-04-26T20:11:36.641Z,5.40
2023-04-26T20:16:39.409Z,5.70
2023-04-26T20:21:42.221Z,4.20
2023-04-26T20:26:45.003Z,5.80
2023-04-26T20:31:49.523Z,3.70
2023-04-26T20:36:52.511Z,4.30
2023-04-26T20:41:55.325Z,4.80
2023-04-26T20:46:58.091Z,6.50
2023-04-26T20:52:01.137Z,5.50
2023-04-26T20:57:03.975Z,5.20
2023-04-26T21:02:08.230Z,7.10
2023-04-26T21:07:11.476Z,7.20
2023-04-26T21:12:14.244Z,6.40
2023-04-26T21:17:17.421Z,5.50
2023-04-26T21:22:20.366Z,6.90
2023-04-26T21:27:23.168Z,7.70
2023-04-26T21:32:25.935Z,9.00
2023-04-26T21:37:28.955Z,9.30
2023-04-26T21:42:32.096Z,9.40
2023-04-26T21:47:35.411Z,7.10
2023-04-26T21:52:38.262Z,7.10
2023-04-26T21:57:41.055Z,7.10
2023-04-26T22:02:44.351Z,6.50
2023-04-26T22:07:47.264Z,7.20
2023-04-26T22:12:50.236Z,6.00
2023-04-26T22:17:54.510Z,6.30
2023-04-26T22:22:57.375Z,10.40
2023-04-26T22:28:00.224Z,7.90
2023-04-26T22:33:03.279Z,8.40
2023-04-26T22:38:06.363Z,8.00
2023-04-26T22:43:09.224Z,9.60
2023-04-26T22:48:12.017Z,11.40
2023-04-26T22:53:14.830Z,8.10
2023-04-26T22:58:18.088Z,10.70
2023-04-26T23:03:21.418Z,9.40
2023-04-26T23:08:26.192Z,12.10
2023-04-26T23:13:29.681Z,10.90
2023-04-26T23:18:32.506Z,10.20
2023-04-26T23:23:36.119Z,10.30
2023-04-26T23:28:40.303Z,9.60
2023-04-26T23:33:43.075Z,13.10
2023-04-26T23:38:45.886Z,9.40
2023-04-26T23:43:48.626Z,9.10
2023-04-26T23:48:51.412Z,7.90
2023-04-26T23:53:54.375Z,10.30
2023-04-26T23:58:58.401Z,8.30
